createdAt,value
2023-02-19T00:00:30.289Z,6.53
2023-02-19T00:05:31.690Z,6.50
2023-02-19T00:10:32.959Z,7.72
2023-02-19T00:15:34.269Z,6.40
2023-02-19T00:20:35.639Z,6.72
2023-02-19T00:25:37.892Z,7.43
2023-02-19T00:30:39.156Z,5.90
2023-02-19T00:35:40.465Z,5.90
2023-02-19T00:40:41.782Z,5.73
2023-02-19T00:45:43.026Z,6.50
2023-02-19T00:50:44.438Z,6.90
2023-02-19T00:55:45.736Z,6.33
2023-02-19T01:00:47.049Z,6.22
2023-02-19T01:05:49.143Z,6.07
2023-02-19T01:10:50.439Z,6.35
2023-02-19T01:15:51.887Z,5.82
2023-02-19T01:20:53.189Z,5.87
2023-02-19T01:25:54.443Z,6.35
2023-02-19T01:30:55.704Z,6.53
2023-02-19T01:35:57.175Z,6.75
2023-02-19T01:40:59.847Z,6.50
2023-02-19T01:46:01.349Z,6.83
2023-02-19T01:51:05.673Z,6.43
2023-02-19T01:56:08.185Z,6.70
2023-02-19T02:01:09.934Z,6.22
2023-02-19T02:06:11.326Z,5.40
2023-02-19T02:11:12.934Z,5.87
2023-02-19T02:16:22.118Z,5.75
2023-02-19T02:21:23.414Z,6.13
2023-02-19T02:26:35.489Z,6.07
2023-02-19T02:31:42.174Z,5.68
2023-02-19T02:36:45.610Z,7.67
2023-02-19T02:42:13.563Z,6.30
2023-02-19T02:47:37.625Z,6.43
2023-02-19T02:52:59.951Z,5.78
2023-02-19T02:58:01.418Z,5.80
2023-02-19T03:03:02.992Z,6.37
2023-02-19T03:08:09.776Z,6.28
2023-02-19T03:13:32.570Z,7.33
2023-02-19T03:18:53.338Z,5.45
2023-02-19T03:24:14.999Z,5.13
2023-02-19T03:29:25.944Z,5.17
2023-02-19T03:34:38.151Z,4.60
2023-02-19T03:39:44.198Z,4.47
2023-02-19T03:44:50.982Z,3.78
2023-02-19T03:49:58.786Z,4.60
2023-02-19T03:55:08.098Z,4.20
2023-02-19T04:00:15.839Z,4.20
2023-02-19T04:05:19.232Z,4.23
2023-02-19T04:10:20.825Z,4.60
2023-02-19T04:15:24.635Z,4.20
2023-02-19T04:20:28.407Z,3.83
2023-02-19T04:25:30.331Z,3.42
2023-02-19T04:30:31.707Z,2.80
2023-02-19T04:35:33.040Z,3.85
2023-02-19T04:40:34.276Z,3.65
2023-02-19T04:45:37.270Z,3.13
2023-02-19T04:50:39.684Z,3.00
2023-02-19T04:55:40.929Z,3.90
2023-02-19T05:00:42.171Z,2.55
2023-02-19T05:05:43.437Z,2.00
2023-02-19T05:10:44.746Z,1.50
2023-02-19T05:15:54.186Z,1.95
2023-02-19T05:20:57.030Z,2.27
2023-02-19T05:25:58.345Z,3.05
2023-02-19T05:31:03.949Z,3.42
2023-02-19T05:36:06.827Z,3.37
2023-02-19T05:41:15.499Z,3.65
2023-02-19T05:46:20.971Z,4.10
2023-02-19T05:51:23.296Z,3.85
2023-02-19T05:56:27.423Z,4.20
2023-02-19T06:01:29.251Z,4.17
2023-02-19T06:06:30.586Z,3.92
2023-02-19T06:11:32.004Z,3.40
2023-02-19T06:16:34.348Z,3.72
2023-02-19T06:21:35.820Z,3.67
2023-02-19T06:26:38.095Z,4.27
2023-02-19T06:31:39.506Z,2.58
2023-02-19T06:36:40.811Z,4.37
2023-02-19T06:41:42.190Z,4.50
2023-02-19T06:46:43.604Z,4.57
2023-02-19T06:51:44.920Z,4.17
2023-02-19T06:56:47.190Z,4.13
2023-02-19T07:01:48.507Z,4.33
2023-02-19T07:06:49.784Z,3.88
2023-02-19T07:11:51.066Z,3.78
2023-02-19T07:16:52.299Z,4.10
2023-02-19T07:21:53.673Z,5.30
2023-02-19T07:26:54.933Z,3.43
2023-02-19T07:31:56.211Z,4.50
2023-02-19T07:36:57.514Z,5.07
2023-02-19T07:41:58.843Z,4.27
2023-02-19T07:47:00.100Z,4.45
2023-02-19T07:52:01.498Z,4.30
2023-02-19T07:57:02.769Z,4.10
2023-02-19T08:02:22.585Z,5.03
2023-02-19T08:07:23.874Z,4.50
2023-02-19T08:12:43.672Z,4.13
2023-02-19T08:17:44.921Z,4.17
2023-02-19T08:22:46.170Z,4.00
2023-02-19T08:27:47.449Z,4.32
2023-02-19T08:32:48.775Z,5.13
2023-02-19T08:37:50.068Z,5.10
2023-02-19T08:42:51.622Z,4.53
2023-02-19T08:47:52.843Z,4.55
2023-02-19T08:52:54.321Z,5.53
2023-02-19T08:57:55.860Z,6.30
2023-02-19T09:02:57.709Z,5.00
2023-02-19T09:07:59.005Z,4.90
2023-02-19T09:13:00.744Z,5.63
2023-02-19T09:18:02.033Z,5.18
2023-02-19T09:23:03.290Z,5.23
2023-02-19T09:28:04.606Z,6.15
2023-02-19T09:33:06.934Z,5.23
2023-02-19T09:38:10.429Z,4.95
2023-02-19T09:43:21.836Z,4.82
2023-02-19T09:48:23.176Z,5.90
2023-02-19T09:53:26.379Z,5.15
2023-02-19T09:58:32.050Z,5.27
2023-02-19T10:03:35.386Z,6.63
2023-02-19T10:08:37.882Z,5.20
2023-02-19T10:13:43.998Z,6.37
2023-02-19T10:18:45.792Z,6.05
2023-02-19T10:23:48.530Z,6.70
2023-02-19T10:28:49.831Z,7.32
2023-02-19T10:33:51.306Z,5.95
2023-02-19T10:38:52.772Z,5.80
2023-02-19T10:44:06.898Z,6.85
2023-02-19T10:49:21.165Z,7.13
2023-02-19T10:54:28.414Z,6.70
2023-02-19T10:59:29.765Z,6.60
2023-02-19T11:04:35.000Z,6.33
2023-02-19T11:09:41.217Z,7.32
2023-02-19T11:14:43.615Z,8.07
2023-02-19T11:19:48.119Z,7.97
2023-02-19T11:24:52.570Z,8.18
2023-02-19T11:29:56.619Z,9.27
2023-02-19T11:35:14.326Z,8.05
2023-02-19T11:40:15.721Z,6.30
2023-02-19T11:45:28.353Z,6.03
2023-02-19T11:50:36.518Z,8.23
2023-02-19T11:55:47.197Z,8.67
2023-02-19T12:00:58.491Z,6.95
2023-02-19T12:06:05.986Z,7.27
2023-02-19T12:11:19.706Z,9.85
2023-02-19T12:16:30.371Z,6.68
2023-02-19T12:21:47.142Z,10.40
2023-02-19T12:27:07.205Z,6.35
2023-02-19T12:32:27.373Z,6.57
2023-02-19T12:37:39.481Z,10.45
2023-02-19T12:42:50.786Z,5.63
2023-02-19T12:47:59.620Z,6.23
2023-02-19T12:53:05.326Z,6.80
2023-02-19T12:58:10.377Z,8.27
2023-02-19T13:03:20.944Z,5.70
2023-02-19T13:08:48.801Z,4.95
2023-02-19T13:14:05.923Z,7.87
2023-02-19T13:19:07.241Z,6.88
2023-02-19T13:24:11.444Z,6.97
2023-02-19T13:29:24.990Z,6.32
2023-02-19T13:34:45.080Z,7.90
2023-02-19T13:39:50.808Z,6.87
2023-02-19T13:44:57.723Z,6.78
2023-02-19T13:50:05.236Z,9.27
2023-02-19T13:55:25.398Z,8.32
2023-02-19T14:00:49.323Z,10.30
2023-02-19T14:06:17.486Z,5.97
2023-02-19T14:11:38.800Z,8.18
2023-02-19T14:16:40.137Z,6.40
2023-02-19T14:21:43.815Z,5.63
2023-02-19T14:26:45.270Z,8.23
2023-02-19T14:31:49.479Z,7.50
2023-02-19T14:36:56.472Z,7.55
2023-02-19T14:41:59.084Z,9.17
2023-02-19T14:47:05.474Z,8.60
2023-02-19T14:52:11.286Z,15.23
2023-02-19T14:57:17.073Z,6.77
2023-02-19T15:02:20.741Z,7.70
2023-02-19T15:07:29.226Z,5.23
2023-02-19T15:12:32.901Z,8.05
2023-02-19T15:17:36.283Z,8.25
2023-02-19T15:22:39.810Z,10.93
2023-02-19T15:27:41.141Z,8.13
2023-02-19T15:32:51.225Z,11.00
2023-02-19T15:37:53.370Z,8.70
2023-02-19T15:42:54.680Z,8.65
2023-02-19T15:47:55.890Z,11.33
2023-02-19T15:53:12.110Z,9.82
2023-02-19T15:58:30.256Z,11.13
2023-02-19T16:03:32.200Z,8.02
2023-02-19T16:08:34.784Z,9.27
2023-02-19T16:13:36.073Z,14.57
2023-02-19T16:18:37.381Z,10.73
2023-02-19T16:23:41.979Z,8.20
2023-02-19T16:28:43.734Z,7.88
2023-02-19T16:33:49.290Z,10.77
2023-02-19T16:39:09.073Z,6.17
2023-02-19T16:44:25.746Z,13.32
2023-02-19T16:49:27.018Z,10.10
2023-02-19T16:54:28.381Z,9.20
2023-02-19T16:59:31.755Z,14.13
2023-02-19T17:04:34.180Z,7.33
2023-02-19T17:09:35.520Z,11.30
2023-02-19T17:14:36.869Z,8.30
2023-02-19T17:19:39.311Z,9.10
2023-02-19T17:24:40.613Z,12.15
2023-02-19T17:29:41.911Z,7.87
2023-02-19T17:34:43.214Z,9.50
2023-02-19T17:39:44.567Z,7.20
2023-02-19T17:44:47.306Z,9.40
2023-02-19T17:49:48.585Z,9.43
2023-02-19T17:54:49.877Z,10.80
2023-02-19T17:59:51.266Z,7.60
2023-02-19T18:04:52.666Z,12.53
2023-02-19T18:09:53.988Z,10.45
2023-02-19T18:14:56.759Z,10.82
2023-02-19T18:19:59.281Z,9.43
2023-02-19T18:25:00.706Z,12.00
2023-02-19T18:30:02.172Z,7.97
2023-02-19T18:35:03.667Z,7.97
2023-02-19T18:40:05.507Z,9.65
2023-02-19T18:45:07.159Z,8.63
2023-02-19T18:50:09.735Z,9.85
2023-02-19T18:55:11.225Z,7.23
2023-02-19T19:00:16.738Z,9.95
2023-02-19T19:05:21.315Z,8.57
2023-02-19T19:10:23.156Z,7.13
2023-02-19T19:15:24.843Z,12.00
2023-02-19T19:20:26.255Z,16.70
2023-02-19T19:25:27.701Z,10.75
2023-02-19T19:30:29.164Z,11.63
2023-02-19T19:35:30.559Z,10.03
2023-02-19T19:40:31.952Z,8.80
2023-02-19T19:45:33.281Z,10.13
2023-02-19T19:50:34.614Z,10.27
2023-02-19T19:55:35.934Z,15.73
2023-02-19T20:00:37.342Z,8.60
2023-02-19T20:05:38.693Z,7.88
2023-02-19T20:10:40.090Z,12.43
2023-02-19T20:15:41.395Z,11.73
2023-02-19T20:20:42.668Z,9.45
2023-02-19T20:25:44.059Z,11.13
2023-02-19T20:30:45.377Z,10.55
2023-02-19T20:35:46.656Z,10.70
2023-02-19T20:40:47.936Z,8.88
2023-02-19T20:45:49.241Z,10.90
2023-02-19T20:50:50.512Z,9.67
2023-02-19T20:55:51.971Z,16.95
2023-02-19T21:00:54.203Z,9.83
2023-02-19T21:05:55.509Z,9.65
2023-02-19T21:10:56.876Z,10.20
2023-02-19T21:15:58.197Z,11.10
2023-02-19T21:20:59.589Z,12.35
2023-02-19T21:26:04.192Z,11.43
2023-02-19T21:31:05.618Z,10.02
2023-02-19T21:36:07.150Z,9.02
2023-02-19T21:41:08.508Z,15.63
2023-02-19T21:46:09.850Z,9.63
2023-02-19T21:51:11.147Z,11.70
2023-02-19T21:56:21.183Z,11.20
2023-02-19T22:01:27.632Z,9.63
2023-02-19T22:06:29.970Z,10.00
2023-02-19T22:11:31.323Z,9.45
2023-02-19T22:16:32.665Z,12.97
2023-02-19T22:21:34.054Z,11.07
2023-02-19T22:26:36.343Z,8.70
2023-02-19T22:31:37.718Z,11.77
2023-02-19T22:36:40.261Z,10.32
2023-02-19T22:41:42.013Z,9.27
2023-02-19T22:46:51.000Z,6.80
2023-02-19T22:51:55.014Z,8.15
2023-02-19T22:56:56.594Z,9.20
2023-02-19T23:01:57.940Z,12.80
2023-02-19T23:06:59.208Z,9.57
2023-02-19T23:12:05.199Z,10.48
2023-02-19T23:17:06.646Z,12.10
2023-02-19T23:22:07.936Z,11.57
2023-02-19T23:27:09.243Z,8.15
2023-02-19T23:32:10.822Z,12.93
2023-02-19T23:37:12.144Z,9.68
2023-02-19T23:42:21.207Z,7.30
2023-02-19T23:47:22.560Z,9.27
2023-02-19T23:52:23.835Z,10.20
2023-02-19T23:57:25.209Z,9.33
